CheckWX is a tool to help pilots better visualize weather data.  It is not intended as a substitute for an official pre-flight weather briefing.

01:37:04 UTC

KMBS METAR
Mbs International Airport
Saginaw, Michigan, USA
Current

19 mins ago

KMBS 240118Z 05008KT 2 1/2SM -RA BR BKN008 OVC017 01/00 A2979 RMK AO2 CIG 006V011 P0003 T00110000
Observed
Feb-24 @ 01:18 UTC
Wind
  • 050° at 8 KTS
Visibility
2 1/2 SM
Flight Rules
IFR
Conditions
Light Rain, Mist
Cloud Levels
  • Broken at 800' AGL
  • Overcast at 1,700' AGL
Temperature
C / 34°F
Dewpoint
C / 32°F
Humidity
93%
Altimeter
29.79" Hg
Pressure
1008.82 hPa
Current Rain
0.03"
Previous

26 mins ago

KMBS 240111Z 06009KT 2 1/2SM -RA BR SCT008 OVC017 01/00 A2979 RMK AO2 P0002 T00060000
Observed
Feb-24 @ 01:11 UTC
Wind
  • 060° at 9 KTS
Visibility
2 1/2 SM
Flight Rules
IFR
Conditions
Light Rain, Mist
Cloud Levels
  • Scattered at 800' AGL
  • Overcast at 1,700' AGL
Temperature
C / 34°F
Dewpoint
C / 32°F
Humidity
93%
Altimeter
29.79" Hg
Pressure
1008.82 hPa
Current Rain
0.02"
Previous

44 mins ago

KMBS 240053Z 06007KT 2 1/2SM -RA BR OVC018 01/M01 A2981 RMK AO2 SLP102 P0006 T00111006
Observed
Feb-24 @ 00:53 UTC
Wind
  • 060° at 7 KTS
Visibility
2 1/2 SM
Flight Rules
IFR
Conditions
Light Rain, Mist
Cloud Levels
  • Overcast at 1,800' AGL
Temperature
C / 34°F
Dewpoint
-1°C / 30°F
Humidity
87%
Altimeter
29.81" Hg
Pressure
1010.2 hPa
Current Rain
0.06"